createdAt,value
2023-02-01T00:00:02.679Z,6.18
2023-02-01T00:01:02.643Z,6.22
2023-02-01T00:02:02.645Z,6.18
2023-02-01T00:03:02.617Z,6.15
2023-02-01T00:04:02.692Z,6.19
2023-02-01T00:05:02.594Z,6.17
2023-02-01T00:06:02.607Z,6.15
2023-02-01T00:07:02.562Z,6.17
2023-02-01T00:08:02.548Z,6.21
2023-02-01T00:09:02.537Z,6.18
2023-02-01T00:10:02.522Z,6.17
2023-02-01T00:11:02.523Z,6.18
2023-02-01T00:12:02.497Z,6.17
2023-02-01T00:13:02.493Z,6.18
2023-02-01T00:14:02.480Z,6.22
2023-02-01T00:15:02.460Z,6.19
2023-02-01T00:16:02.507Z,6.19
2023-02-01T00:17:02.446Z,6.19
2023-02-01T00:18:02.424Z,6.21
2023-02-01T00:19:02.423Z,6.22
2023-02-01T00:20:02.417Z,6.24
2023-02-01T00:21:02.411Z,6.26
2023-02-01T00:22:02.370Z,6.27
2023-02-01T00:23:02.361Z,6.27
2023-02-01T00:24:02.344Z,6.29
2023-02-01T00:25:02.337Z,6.29
2023-02-01T00:26:02.317Z,6.24
2023-02-01T00:27:02.305Z,6.29
2023-02-01T00:28:02.294Z,6.26
2023-02-01T00:29:02.285Z,6.30
2023-02-01T00:30:02.280Z,6.26
2023-02-01T00:31:02.428Z,6.29
2023-02-01T00:32:02.372Z,6.22
2023-02-01T00:33:02.230Z,6.30
2023-02-01T00:34:02.219Z,6.26
2023-02-01T00:35:02.204Z,6.22
2023-02-01T00:36:02.190Z,6.26
2023-02-01T00:37:02.199Z,6.22
2023-02-01T00:38:02.163Z,6.27
2023-02-01T00:39:02.154Z,6.24
2023-02-01T00:40:02.147Z,6.30
2023-02-01T00:41:02.128Z,6.33
2023-02-01T00:42:02.113Z,6.27
2023-02-01T00:43:02.101Z,6.27
2023-02-01T00:44:02.093Z,6.32
2023-02-01T00:45:02.077Z,6.30
2023-02-01T00:46:02.081Z,6.33
2023-02-01T00:47:02.055Z,6.33
2023-02-01T00:48:02.063Z,6.33
2023-02-01T00:49:02.025Z,6.40
2023-02-01T00:50:02.016Z,6.36
2023-02-01T00:51:02.012Z,6.37
2023-02-01T00:52:01.992Z,6.39
2023-02-01T00:53:01.975Z,6.35
2023-02-01T00:54:01.959Z,6.36
2023-02-01T00:55:01.952Z,6.40
2023-02-01T00:56:01.936Z,6.43
2023-02-01T00:57:01.932Z,6.42
2023-02-01T00:58:01.910Z,6.43
2023-02-01T00:59:01.895Z,6.47
2023-02-01T01:00:01.884Z,6.47
2023-02-01T01:01:01.988Z,6.42
2023-02-01T01:02:01.921Z,6.43
2023-02-01T01:03:01.846Z,6.43
2023-02-01T01:04:01.856Z,6.45
2023-02-01T01:05:01.830Z,6.48
2023-02-01T01:06:01.803Z,6.47
2023-02-01T01:07:01.815Z,6.42
2023-02-01T01:08:01.779Z,6.43
2023-02-01T01:09:01.785Z,6.43
2023-02-01T01:10:01.757Z,6.48
2023-02-01T01:11:01.750Z,6.45
2023-02-01T01:12:01.733Z,6.42
2023-02-01T01:13:01.719Z,6.43
2023-02-01T01:14:01.736Z,6.42
2023-02-01T01:15:01.689Z,6.45
2023-02-01T01:16:01.717Z,6.45
2023-02-01T01:17:01.670Z,6.45
2023-02-01T01:18:01.651Z,6.45
2023-02-01T01:19:01.646Z,6.50
2023-02-01T01:20:01.704Z,6.48
2023-02-01T01:21:01.623Z,6.50
2023-02-01T01:22:01.602Z,6.50
2023-02-01T01:23:01.588Z,6.53
2023-02-01T01:24:01.579Z,6.55
2023-02-01T01:25:01.561Z,6.54
2023-02-01T01:26:01.552Z,6.54
2023-02-01T01:27:01.569Z,6.57
2023-02-01T01:28:01.533Z,6.51
2023-02-01T01:29:01.520Z,6.51
2023-02-01T01:30:01.529Z,6.53
2023-02-01T01:31:01.598Z,6.57
2023-02-01T01:32:01.485Z,6.57
2023-02-01T01:33:01.466Z,6.60
2023-02-01T01:34:01.489Z,6.63
2023-02-01T01:35:01.438Z,6.65
2023-02-01T01:36:01.448Z,6.61
2023-02-01T01:37:01.408Z,6.65
2023-02-01T01:38:01.392Z,6.68
2023-02-01T01:39:01.389Z,6.60
2023-02-01T01:40:01.385Z,6.57
2023-02-01T01:41:01.359Z,6.55
2023-02-01T01:42:01.343Z,6.58
2023-02-01T01:43:01.332Z,6.61
2023-02-01T01:44:01.327Z,6.57
2023-02-01T01:45:01.319Z,6.61
2023-02-01T01:46:01.293Z,6.65
2023-02-01T01:47:01.342Z,6.68
2023-02-01T01:48:01.268Z,6.63
2023-02-01T01:49:01.257Z,6.63
2023-02-01T01:50:01.243Z,6.60
2023-02-01T01:51:01.230Z,6.63
2023-02-01T01:52:01.245Z,6.65
2023-02-01T01:53:01.210Z,6.65
2023-02-01T01:54:01.186Z,6.70
2023-02-01T01:55:01.176Z,6.70
2023-02-01T01:56:01.160Z,6.73
2023-02-01T01:57:01.156Z,6.69
2023-02-01T01:58:01.144Z,6.72
2023-02-01T01:59:01.126Z,6.72
2023-02-01T02:00:01.113Z,6.69
2023-02-01T02:01:01.162Z,6.66
2023-02-01T02:02:01.112Z,6.68
2023-02-01T02:03:01.073Z,6.68
2023-02-01T02:04:01.059Z,6.68
2023-02-01T02:05:01.050Z,6.70
2023-02-01T02:06:01.042Z,6.72
2023-02-01T02:07:01.021Z,6.72
2023-02-01T02:08:01.038Z,6.69
2023-02-01T02:09:01.002Z,6.78
2023-02-01T02:10:01.623Z,6.79
2023-02-01T02:11:00.977Z,6.83
2023-02-01T02:12:00.960Z,6.86
2023-02-01T02:13:00.949Z,6.86
2023-02-01T02:14:00.933Z,6.79
2023-02-01T02:15:00.922Z,6.79
2023-02-01T02:16:00.952Z,6.78
2023-02-01T02:17:00.899Z,6.79
2023-02-01T02:18:00.879Z,6.78
2023-02-01T02:19:00.865Z,6.80
2023-02-01T02:20:00.881Z,6.78
2023-02-01T02:21:00.841Z,6.79
2023-02-01T02:22:00.836Z,6.83
2023-02-01T02:23:00.815Z,6.83
2023-02-01T02:24:00.838Z,6.75
2023-02-01T02:25:00.791Z,6.76
2023-02-01T02:26:00.777Z,6.79
2023-02-01T02:27:00.764Z,6.83
2023-02-01T02:28:00.757Z,6.83
2023-02-01T02:29:00.738Z,6.86
2023-02-01T02:30:00.727Z,6.88
2023-02-01T02:31:00.772Z,6.86
2023-02-01T02:32:00.704Z,6.84
2023-02-01T02:33:00.690Z,6.84
2023-02-01T02:34:00.678Z,6.83
2023-02-01T02:35:00.668Z,6.80
2023-02-01T02:36:00.652Z,6.80
2023-02-01T02:37:00.649Z,6.78
2023-02-01T02:38:00.623Z,6.78
2023-02-01T02:39:00.613Z,6.80
2023-02-01T02:40:00.653Z,6.78
2023-02-01T02:41:00.586Z,6.83
2023-02-01T02:42:00.571Z,6.83
2023-02-01T02:43:00.559Z,6.83
2023-02-01T02:44:00.549Z,6.86
2023-02-01T02:45:00.539Z,6.84
2023-02-01T02:46:00.558Z,6.83
2023-02-01T02:47:00.506Z,6.80
2023-02-01T02:48:00.497Z,6.83
2023-02-01T02:49:00.480Z,6.87
2023-02-01T02:50:00.468Z,6.90
2023-02-01T02:51:00.456Z,6.90
2023-02-01T02:52:00.445Z,6.94
2023-02-01T02:53:00.431Z,6.97
2023-02-01T02:54:00.415Z,6.87
2023-02-01T02:55:00.403Z,6.91
2023-02-01T02:56:00.416Z,6.97
2023-02-01T02:57:00.378Z,6.94
2023-02-01T02:58:00.367Z,6.90
2023-02-01T02:59:00.358Z,6.95
2023-02-01T03:00:00.340Z,6.91
2023-02-01T03:01:00.367Z,6.97
2023-02-01T03:02:00.315Z,6.95
2023-02-01T03:03:00.433Z,6.95
2023-02-01T03:04:00.301Z,6.87
2023-02-01T03:05:00.279Z,6.87
2023-02-01T03:06:00.268Z,6.86
2023-02-01T03:07:00.251Z,6.86
2023-02-01T03:08:00.245Z,6.91
2023-02-01T03:09:00.227Z,6.88
2023-02-01T03:10:00.212Z,6.88
2023-02-01T03:11:00.199Z,6.88
2023-02-01T03:12:00.211Z,6.90
2023-02-01T03:13:00.169Z,6.86
2023-02-01T03:14:00.155Z,6.83
2023-02-01T03:15:00.158Z,6.79
2023-02-01T03:16:00.139Z,6.79
2023-02-01T03:17:00.138Z,6.79
2023-02-01T03:18:00.124Z,6.80
2023-02-01T03:19:00.117Z,6.75
2023-02-01T03:20:00.122Z,6.80
2023-02-01T03:21:00.094Z,6.80
2023-02-01T03:22:00.064Z,6.79
2023-02-01T03:23:00.060Z,6.76
2023-02-01T03:24:00.038Z,6.76
2023-02-01T03:25:00.022Z,6.80
2023-02-01T03:26:00.005Z,6.83
2023-02-01T03:26:59.990Z,6.84
2023-02-01T03:28:00.010Z,6.84
2023-02-01T03:28:59.964Z,6.80
2023-02-01T03:29:59.959Z,6.80
2023-02-01T03:30:59.995Z,6.78
2023-02-01T03:31:59.995Z,6.78
2023-02-01T03:32:59.937Z,6.79
2023-02-01T03:33:59.901Z,6.79
2023-02-01T03:34:59.888Z,6.78
2023-02-01T03:35:59.889Z,6.76
2023-02-01T03:36:59.867Z,6.75
2023-02-01T03:37:59.852Z,6.76
2023-02-01T03:38:59.838Z,6.78
2023-02-01T03:39:59.830Z,6.76
2023-02-01T03:40:59.809Z,6.75
2023-02-01T03:41:59.804Z,6.75
2023-02-01T03:42:59.787Z,6.78
2023-02-01T03:43:59.800Z,6.73
2023-02-01T03:44:59.764Z,6.75
2023-02-01T03:45:59.835Z,6.78
2023-02-01T03:46:59.735Z,6.78
2023-02-01T03:47:59.727Z,6.78
2023-02-01T03:48:59.709Z,6.76
2023-02-01T03:49:59.699Z,6.78
2023-02-01T03:50:59.681Z,6.79
2023-02-01T03:51:59.702Z,6.75
2023-02-01T03:52:59.674Z,6.73
2023-02-01T03:53:59.645Z,6.78
2023-02-01T03:54:59.638Z,6.72
2023-02-01T03:56:59.605Z,6.78
2023-02-01T03:57:59.596Z,6.72
2023-02-01T03:58:59.579Z,6.75
2023-02-01T03:59:59.595Z,6.78
2023-02-01T04:00:59.632Z,6.75
2023-02-01T04:01:59.549Z,6.78
2023-02-01T04:02:59.529Z,6.78
2023-02-01T04:03:59.519Z,6.78
2023-02-01T04:04:59.517Z,6.79
2023-02-01T04:05:59.493Z,6.79
2023-02-01T04:06:59.480Z,6.75
2023-02-01T04:07:59.478Z,6.80
2023-02-01T04:08:59.454Z,6.80
2023-02-01T04:09:59.451Z,6.84
2023-02-01T04:10:59.428Z,6.83
2023-02-01T04:11:59.413Z,6.80
2023-02-01T04:12:59.406Z,6.79
2023-02-01T04:13:59.390Z,6.78
2023-02-01T04:14:59.384Z,6.76
2023-02-01T04:15:59.396Z,6.76
2023-02-01T04:16:59.351Z,6.76
2023-02-01T04:17:59.340Z,6.72
2023-02-01T04:18:59.322Z,6.80
2023-02-01T04:19:59.319Z,6.80
2023-02-01T04:20:59.298Z,6.83
2023-02-01T04:21:59.287Z,6.83
2023-02-01T04:22:59.293Z,6.79
2023-02-01T04:23:59.258Z,6.78
2023-02-01T04:24:59.246Z,6.75
2023-02-01T04:25:59.234Z,6.76
2023-02-01T04:26:59.221Z,6.73
2023-02-01T04:27:59.218Z,6.75
2023-02-01T04:28:59.194Z,6.76
2023-02-01T04:29:59.198Z,6.75
2023-02-01T04:30:59.470Z,6.80
2023-02-01T04:31:59.187Z,6.79
2023-02-01T04:32:59.145Z,6.84
2023-02-01T04:33:59.131Z,6.83
2023-02-01T04:34:59.124Z,6.79
2023-02-01T04:35:59.108Z,6.80
2023-02-01T04:36:59.095Z,6.84
2023-02-01T04:37:59.081Z,6.83
2023-02-01T04:38:59.083Z,6.84
2023-02-01T04:39:59.073Z,6.86
2023-02-01T04:40:59.048Z,6.83
2023-02-01T04:41:59.049Z,6.80
2023-02-01T04:42:59.019Z,6.80
2023-02-01T04:43:59.003Z,6.83
2023-02-01T04:44:59.006Z,6.79
2023-02-01T04:45:59.055Z,6.87
2023-02-01T04:46:58.971Z,6.86
2023-02-01T04:47:58.980Z,6.83
2023-02-01T04:48:58.943Z,6.79
2023-02-01T04:49:58.932Z,6.86
2023-02-01T04:50:58.913Z,6.91
2023-02-01T04:51:58.901Z,6.94
2023-02-01T04:52:58.886Z,6.88
2023-02-01T04:53:58.880Z,6.95
2023-02-01T04:54:59.362Z,6.91
2023-02-01T04:55:58.872Z,6.91
2023-02-01T04:56:58.833Z,6.91
2023-02-01T04:57:58.839Z,6.91
2023-02-01T04:58:58.805Z,6.94
2023-02-01T04:59:58.800Z,6.88
2023-02-01T05:00:58.842Z,6.94
2023-02-01T05:01:58.775Z,6.97
2023-02-01T05:02:58.759Z,6.94
2023-02-01T05:03:58.789Z,6.87
2023-02-01T05:04:58.796Z,6.87
2023-02-01T05:05:58.740Z,6.88
2023-02-01T05:06:58.730Z,6.88
2023-02-01T05:07:58.693Z,6.88
2023-02-01T05:08:58.678Z,6.83
2023-02-01T05:09:58.667Z,6.84
2023-02-01T05:10:58.657Z,6.90
2023-02-01T05:11:58.647Z,6.84
2023-02-01T05:12:58.630Z,6.78
2023-02-01T05:13:59.191Z,6.80
2023-02-01T05:14:58.607Z,6.84
2023-02-01T05:15:58.628Z,6.80
2023-02-01T05:16:58.577Z,6.78
2023-02-01T05:17:58.568Z,6.76
2023-02-01T05:18:58.551Z,6.73
2023-02-01T05:19:58.569Z,6.70
2023-02-01T05:20:58.529Z,6.70
2023-02-01T05:21:58.513Z,6.63
2023-02-01T05:22:58.529Z,6.60
2023-02-01T05:23:58.500Z,6.60
2023-02-01T05:24:58.497Z,6.55
2023-02-01T05:25:58.463Z,6.58
2023-02-01T05:26:58.452Z,6.51
2023-02-01T05:27:58.440Z,6.48
2023-02-01T05:28:58.423Z,6.50
2023-02-01T05:29:58.412Z,6.53
2023-02-01T05:30:58.551Z,6.58
2023-02-01T05:32:03.048Z,6.54
2023-02-01T05:33:00.385Z,6.55
2023-02-01T05:33:58.366Z,6.53
2023-02-01T05:34:58.358Z,6.58
2023-02-01T05:35:58.361Z,6.57
2023-02-01T05:36:58.323Z,6.54
2023-02-01T05:37:58.324Z,6.54
2023-02-01T05:38:58.302Z,6.54
2023-02-01T05:39:58.290Z,6.58
2023-02-01T05:40:58.272Z,6.55
2023-02-01T05:41:58.276Z,6.58
2023-02-01T05:42:58.273Z,6.50
2023-02-01T05:43:58.238Z,6.51
2023-02-01T05:44:58.221Z,6.50
2023-02-01T05:45:58.262Z,6.47
2023-02-01T05:46:58.205Z,6.45
2023-02-01T05:47:58.188Z,6.48
2023-02-01T05:48:58.175Z,6.47
2023-02-01T05:49:58.159Z,6.42
2023-02-01T05:50:58.144Z,6.39
2023-02-01T05:52:00.283Z,6.39
2023-02-01T05:52:58.120Z,6.35
2023-02-01T05:53:58.109Z,6.43
2023-02-01T05:54:58.093Z,6.42
2023-02-01T05:55:58.085Z,6.50
2023-02-01T05:56:58.079Z,6.51
2023-02-01T05:57:58.056Z,6.48
2023-02-01T05:58:58.053Z,6.48
2023-02-01T06:00:00.148Z,6.47
2023-02-01T06:00:58.029Z,6.47
2023-02-01T06:01:58.005Z,6.45
2023-02-01T06:02:58.122Z,6.48
2023-02-01T06:03:58.064Z,6.45
2023-02-01T06:04:57.974Z,6.42
2023-02-01T06:05:57.970Z,6.45
2023-02-01T06:06:57.940Z,6.40
2023-02-01T06:07:57.970Z,6.43
2023-02-01T06:08:57.922Z,6.42
2023-02-01T06:09:57.904Z,6.37
2023-02-01T06:10:57.901Z,6.36
2023-02-01T06:11:57.877Z,6.32
2023-02-01T06:12:57.872Z,6.24
2023-02-01T06:13:57.859Z,6.19
2023-02-01T06:14:57.844Z,6.24
2023-02-01T06:15:57.980Z,6.22
2023-02-01T06:16:57.815Z,6.24
2023-02-01T06:17:57.806Z,6.26
2023-02-01T06:18:57.796Z,6.27
2023-02-01T06:19:57.776Z,6.33
2023-02-01T06:20:57.765Z,6.32
2023-02-01T06:21:57.755Z,6.32
2023-02-01T06:22:57.742Z,6.35
2023-02-01T06:23:57.759Z,6.32
2023-02-01T06:24:57.712Z,6.32
2023-02-01T06:25:57.702Z,6.24
2023-02-01T06:26:57.688Z,6.22
2023-02-01T06:27:57.672Z,6.26
2023-02-01T06:28:57.666Z,6.26
2023-02-01T06:29:57.646Z,6.22
2023-02-01T06:30:57.816Z,6.24
2023-02-01T06:31:57.663Z,6.19
2023-02-01T06:32:57.611Z,6.19
2023-02-01T06:33:57.610Z,6.18
2023-02-01T06:34:57.590Z,6.14
2023-02-01T06:35:57.579Z,6.14
2023-02-01T06:36:57.561Z,6.14
2023-02-01T06:37:57.546Z,6.19
2023-02-01T06:38:57.562Z,6.18
2023-02-01T06:39:57.573Z,6.19
2023-02-01T06:40:57.515Z,6.22
2023-02-01T06:41:57.495Z,6.22
2023-02-01T06:42:57.484Z,6.22
2023-02-01T06:43:57.469Z,6.19
2023-02-01T06:44:57.463Z,6.19
2023-02-01T06:45:57.442Z,6.18
2023-02-01T06:46:57.537Z,6.11
2023-02-01T06:47:57.437Z,6.12
2023-02-01T06:48:57.412Z,6.08
2023-02-01T06:49:57.402Z,6.08
2023-02-01T06:50:57.389Z,6.12
2023-02-01T06:51:57.372Z,6.11
2023-02-01T06:52:57.365Z,6.12
2023-02-01T06:53:57.344Z,6.09
2023-02-01T06:54:57.331Z,6.08
2023-02-01T06:55:57.347Z,6.06
2023-02-01T06:56:57.310Z,6.11
2023-02-01T06:57:57.293Z,6.14
2023-02-01T06:58:57.283Z,6.11
2023-02-01T06:59:57.269Z,6.15
2023-02-01T07:00:57.278Z,6.18
2023-02-01T07:01:57.310Z,6.21
2023-02-01T07:02:57.232Z,6.21
2023-02-01T07:03:57.218Z,6.18
2023-02-01T07:04:57.229Z,6.17
2023-02-01T07:05:57.196Z,6.15
2023-02-01T07:06:57.194Z,6.14
2023-02-01T07:07:57.167Z,6.18
2023-02-01T07:08:57.152Z,6.21
2023-02-01T07:09:57.142Z,6.22
2023-02-01T07:10:57.133Z,6.21
2023-02-01T07:11:57.142Z,6.22
2023-02-01T07:12:57.103Z,6.18
2023-02-01T07:13:57.087Z,6.18
2023-02-01T07:14:57.078Z,6.15
2023-02-01T07:15:57.095Z,6.17
2023-02-01T07:16:57.052Z,6.14
2023-02-01T07:17:57.038Z,6.14
2023-02-01T07:18:57.029Z,6.18
2023-02-01T07:19:57.011Z,6.15
2023-02-01T07:20:57.005Z,6.17
2023-02-01T07:21:56.990Z,6.17
2023-02-01T07:22:56.976Z,6.17
2023-02-01T07:23:56.962Z,6.21
2023-02-01T07:24:56.959Z,6.24
2023-02-01T07:25:56.940Z,6.21
2023-02-01T07:26:56.924Z,6.24
2023-02-01T07:27:56.940Z,6.21
2023-02-01T07:28:56.901Z,6.21
2023-02-01T07:29:56.886Z,6.26
2023-02-01T07:30:56.936Z,6.26
2023-02-01T07:31:56.858Z,6.22
2023-02-01T07:32:56.948Z,6.30
2023-02-01T07:33:56.834Z,6.27
2023-02-01T07:34:56.824Z,6.19
2023-02-01T07:35:56.808Z,6.24
2023-02-01T07:36:56.796Z,6.33
2023-02-01T07:37:56.781Z,6.37
2023-02-01T07:38:57.102Z,6.39
2023-02-01T07:39:56.758Z,6.39
2023-02-01T07:40:56.744Z,6.40
2023-02-01T07:41:56.730Z,6.42
2023-02-01T07:42:56.731Z,6.43
2023-02-01T07:43:56.759Z,6.45
2023-02-01T07:44:57.571Z,6.40
2023-02-01T07:45:56.705Z,6.40
2023-02-01T07:46:56.674Z,6.42
2023-02-01T07:47:56.654Z,6.45
2023-02-01T07:48:56.641Z,6.47
2023-02-01T07:49:56.628Z,6.47
2023-02-01T07:50:56.618Z,6.51
2023-02-01T07:51:56.606Z,6.50
2023-02-01T07:52:56.590Z,6.51
2023-02-01T07:53:56.598Z,6.50
2023-02-01T07:54:56.588Z,6.54
2023-02-01T07:55:56.552Z,6.53
2023-02-01T07:56:56.540Z,6.58
2023-02-01T07:57:56.525Z,6.57
2023-02-01T07:58:56.513Z,6.61
2023-02-01T07:59:56.526Z,6.61
2023-02-01T08:00:56.513Z,6.63
2023-02-01T08:01:56.537Z,6.61
2023-02-01T08:02:56.464Z,6.63
2023-02-01T08:03:56.459Z,6.68
2023-02-01T08:04:56.436Z,6.72
2023-02-01T08:05:56.429Z,6.68
2023-02-01T08:06:56.417Z,6.76
2023-02-01T08:07:56.398Z,6.76
2023-02-01T08:08:56.390Z,6.72
2023-02-01T08:09:56.371Z,6.79
2023-02-01T08:10:56.360Z,6.78
2023-02-01T08:11:56.348Z,6.76
2023-02-01T08:12:56.334Z,6.83
2023-02-01T08:13:56.323Z,6.86
2023-02-01T08:14:56.323Z,6.87
2023-02-01T08:15:56.321Z,6.90
2023-02-01T08:16:56.293Z,6.94
2023-02-01T08:17:56.268Z,6.95
2023-02-01T08:18:56.272Z,7.02
2023-02-01T08:19:56.267Z,7.02
2023-02-01T08:20:56.238Z,7.09
2023-02-01T08:21:56.216Z,7.07
2023-02-01T08:22:56.217Z,7.09
2023-02-01T08:23:56.192Z,7.12
2023-02-01T08:24:56.181Z,7.07
2023-02-01T08:25:56.169Z,7.07
2023-02-01T08:26:56.305Z,7.07
2023-02-01T08:27:56.143Z,7.12
2023-02-01T08:28:56.127Z,7.16
2023-02-01T08:29:56.121Z,7.12
2023-02-01T08:30:56.174Z,7.16
2023-02-01T08:31:56.184Z,7.13
2023-02-01T08:32:56.076Z,7.13
2023-02-01T08:33:56.059Z,7.06
2023-02-01T08:34:56.050Z,7.07
2023-02-01T08:35:56.039Z,7.10
2023-02-01T08:36:56.031Z,7.07
2023-02-01T08:37:56.011Z,7.09
2023-02-01T08:38:56.000Z,7.10
2023-02-01T08:39:55.983Z,7.13
2023-02-01T08:40:55.986Z,7.06
2023-02-01T08:41:55.959Z,7.05
2023-02-01T08:42:55.949Z,7.06
2023-02-01T08:43:55.930Z,7.07
2023-02-01T08:44:55.921Z,7.06
2023-02-01T08:45:57.068Z,7.10
2023-02-01T08:46:55.895Z,7.12
2023-02-01T08:47:55.930Z,7.09
2023-02-01T08:48:55.868Z,7.13
2023-02-01T08:49:55.855Z,7.12
2023-02-01T08:50:55.847Z,7.21
2023-02-01T08:51:58.435Z,7.20
2023-02-01T08:52:55.830Z,7.21
2023-02-01T08:53:55.801Z,7.25
2023-02-01T08:54:55.797Z,7.20
2023-02-01T08:55:55.777Z,7.24
2023-02-01T08:56:55.839Z,7.24
2023-02-01T08:57:55.752Z,7.27
2023-02-01T08:58:55.739Z,7.25
2023-02-01T08:59:55.730Z,7.25
2023-02-01T09:00:55.767Z,7.21
2023-02-01T09:01:55.700Z,7.21
2023-02-01T09:02:55.689Z,7.20
2023-02-01T09:03:55.705Z,7.17
2023-02-01T09:04:55.667Z,7.17
2023-02-01T09:05:55.648Z,7.15
2023-02-01T09:06:55.647Z,7.12
2023-02-01T09:07:55.625Z,7.10
2023-02-01T09:08:55.621Z,7.13
2023-02-01T09:09:55.641Z,7.09
2023-02-01T09:10:55.592Z,7.10
2023-02-01T09:11:55.579Z,7.10
2023-02-01T09:12:55.569Z,7.10
2023-02-01T09:13:55.556Z,7.09
2023-02-01T09:14:55.610Z,7.12
2023-02-01T09:15:55.572Z,7.10
2023-02-01T09:16:55.538Z,7.09
2023-02-01T09:17:55.495Z,7.09
2023-02-01T09:18:56.724Z,7.10
2023-02-01T09:19:57.500Z,7.05
2023-02-01T09:20:55.466Z,7.09
2023-02-01T09:21:55.445Z,7.10
2023-02-01T09:22:55.432Z,7.10
2023-02-01T09:23:55.419Z,7.06
2023-02-01T09:24:55.544Z,7.07
2023-02-01T09:25:55.391Z,7.12
2023-02-01T09:26:55.448Z,7.15
2023-02-01T09:27:55.374Z,7.13
2023-02-01T09:28:55.360Z,7.16
2023-02-01T09:29:55.343Z,7.10
2023-02-01T09:30:55.491Z,7.12
2023-02-01T09:32:03.208Z,7.12
2023-02-01T09:32:57.308Z,7.15
2023-02-01T09:33:55.288Z,7.15
2023-02-01T09:34:55.286Z,7.15
2023-02-01T09:35:55.336Z,7.20
2023-02-01T09:36:55.251Z,7.20
2023-02-01T09:37:55.236Z,7.20
2023-02-01T09:38:55.240Z,7.23
2023-02-01T09:39:55.208Z,7.24
2023-02-01T09:40:55.198Z,7.31
2023-02-01T09:41:55.181Z,7.35
2023-02-01T09:42:55.194Z,7.42
2023-02-01T09:43:55.157Z,7.43
2023-02-01T09:44:55.145Z,7.42
2023-02-01T09:45:55.150Z,7.40
2023-02-01T09:46:55.122Z,7.43
2023-02-01T09:47:55.108Z,7.37
2023-02-01T09:48:55.099Z,7.40
2023-02-01T09:49:55.092Z,7.52
2023-02-01T09:50:55.072Z,7.40
2023-02-01T09:51:55.080Z,7.42
2023-02-01T09:52:55.057Z,7.46
2023-02-01T09:53:55.032Z,7.40
2023-02-01T09:54:55.026Z,7.42
2023-02-01T09:55:55.003Z,7.46
2023-02-01T09:56:54.994Z,7.49
2023-02-01T09:57:55.000Z,7.52
2023-02-01T09:58:54.981Z,7.49
2023-02-01T09:59:54.979Z,7.60
2023-02-01T10:00:54.960Z,7.52
2023-02-01T10:01:54.973Z,7.57
2023-02-01T10:02:54.921Z,7.52
2023-02-01T10:03:54.940Z,7.60
2023-02-01T10:04:54.931Z,7.61
2023-02-01T10:05:54.879Z,7.60
2023-02-01T10:06:54.874Z,7.55
2023-02-01T10:07:54.882Z,7.52
2023-02-01T10:08:54.902Z,7.63
2023-02-01T10:09:54.870Z,7.61
2023-02-01T10:10:54.823Z,7.61
2023-02-01T10:11:54.833Z,7.53
2023-02-01T10:12:54.806Z,7.55
2023-02-01T10:13:54.786Z,7.61
2023-02-01T10:14:54.771Z,7.64
2023-02-01T10:15:54.916Z,7.64
2023-02-01T10:16:54.804Z,7.66
2023-02-01T10:17:56.247Z,7.53
2023-02-01T10:18:54.723Z,7.57
2023-02-01T10:19:54.707Z,7.58
2023-02-01T10:20:54.701Z,7.60
2023-02-01T10:21:54.685Z,7.63
2023-02-01T10:23:16.309Z,7.58
2023-02-01T10:23:58.896Z,7.53
2023-02-01T10:24:54.648Z,7.50
2023-02-01T10:25:54.632Z,7.61
2023-02-01T10:26:54.723Z,7.61
2023-02-01T10:27:54.604Z,7.63
2023-02-01T10:28:54.593Z,7.61
2023-02-01T10:29:54.587Z,7.58
2023-02-01T10:30:54.676Z,7.50
2023-02-01T10:31:54.726Z,7.58
2023-02-01T10:32:54.545Z,7.57
2023-02-01T10:33:54.536Z,7.53
2023-02-01T10:34:54.517Z,7.55
2023-02-01T10:35:54.509Z,7.53
2023-02-01T10:36:54.505Z,7.43
2023-02-01T10:37:54.481Z,7.42
2023-02-01T10:38:54.470Z,7.45
2023-02-01T10:39:54.481Z,7.49
2023-02-01T10:40:54.441Z,7.48
2023-02-01T10:41:54.433Z,7.43
2023-02-01T10:42:54.461Z,7.48
2023-02-01T10:43:54.403Z,7.52
2023-02-01T10:44:54.402Z,7.60
2023-02-01T10:45:54.388Z,7.57
2023-02-01T10:46:54.367Z,7.52
2023-02-01T10:47:54.357Z,7.57
2023-02-01T10:48:54.347Z,7.52
2023-02-01T10:49:54.329Z,7.60
2023-02-01T10:50:54.323Z,7.61
2023-02-01T10:51:54.306Z,7.66
2023-02-01T10:52:54.293Z,7.73
2023-02-01T10:53:54.290Z,7.68
2023-02-01T10:54:54.301Z,7.63
2023-02-01T10:55:54.282Z,7.60
2023-02-01T10:56:54.241Z,7.66
2023-02-01T10:57:54.230Z,7.67
2023-02-01T10:58:54.222Z,7.70
2023-02-01T10:59:54.204Z,7.76
2023-02-01T11:00:54.197Z,7.76
2023-02-01T11:01:59.712Z,7.71
2023-02-01T11:02:54.315Z,7.73
2023-02-01T11:03:54.155Z,7.84
2023-02-01T11:04:54.141Z,7.88
2023-02-01T11:05:54.137Z,7.82
2023-02-01T11:06:54.123Z,7.76
2023-02-01T11:07:54.103Z,7.68
2023-02-01T11:08:54.089Z,7.68
2023-02-01T11:09:54.079Z,7.74
2023-02-01T11:10:54.063Z,7.78
2023-02-01T11:11:54.076Z,7.81
2023-02-01T11:12:54.053Z,7.81
2023-02-01T11:13:54.033Z,7.84
2023-02-01T11:14:54.014Z,7.86
2023-02-01T11:15:55.493Z,7.91
2023-02-01T11:16:53.999Z,7.97
2023-02-01T11:17:53.984Z,7.92
2023-02-01T11:18:53.962Z,7.97
2023-02-01T11:19:53.954Z,8.03
2023-02-01T11:20:53.937Z,8.15
2023-02-01T11:21:53.927Z,8.17
2023-02-01T11:22:53.923Z,7.96
2023-02-01T11:23:53.912Z,7.92
2023-02-01T11:24:53.896Z,7.97
2023-02-01T11:25:53.878Z,8.00
2023-02-01T11:26:54.057Z,8.03
2023-02-01T11:27:55.649Z,8.11
2023-02-01T11:28:53.838Z,8.11
2023-02-01T11:29:53.824Z,8.14
2023-02-01T11:30:53.880Z,8.17
2023-02-01T11:31:53.934Z,8.37
2023-02-01T11:32:53.783Z,8.38
2023-02-01T11:33:53.778Z,8.41
2023-02-01T11:34:53.759Z,8.35
2023-02-01T11:35:53.749Z,8.56
2023-02-01T11:36:53.732Z,8.59
2023-02-01T11:37:53.718Z,8.47
2023-02-01T11:38:53.705Z,8.56
2023-02-01T11:39:53.693Z,8.84
2023-02-01T11:40:53.685Z,8.86
2023-02-01T11:41:53.666Z,8.79
2023-02-01T11:42:53.662Z,8.83
2023-02-01T11:43:53.684Z,8.74
2023-02-01T11:44:53.627Z,8.71
2023-02-01T11:45:53.616Z,8.74
2023-02-01T11:46:53.629Z,8.70
2023-02-01T11:47:53.595Z,8.74
2023-02-01T11:48:53.578Z,8.59
2023-02-01T11:49:53.564Z,8.83
2023-02-01T11:50:53.551Z,8.89
2023-02-01T11:51:53.544Z,8.92
2023-02-01T11:52:53.614Z,8.89
2023-02-01T11:53:53.514Z,9.42
2023-02-01T11:54:53.519Z,10.11
2023-02-01T11:55:53.502Z,9.63
2023-02-01T11:57:53.458Z,9.79
2023-02-01T11:58:53.443Z,9.99
2023-02-01T11:59:56.757Z,10.15
2023-02-01T12:00:53.423Z,10.22
2023-02-01T12:01:53.495Z,10.69
2023-02-01T12:02:53.427Z,10.93
2023-02-01T12:03:53.380Z,10.75
2023-02-01T12:04:53.367Z,9.99
2023-02-01T12:05:53.355Z,9.83
2023-02-01T12:06:53.341Z,9.87
2023-02-01T12:07:53.330Z,10.07
2023-02-01T12:08:53.317Z,10.47
2023-02-01T12:09:53.306Z,10.80
2023-02-01T12:10:53.290Z,10.73
2023-02-01T12:11:53.282Z,11.14
2023-02-01T12:12:53.284Z,11.09
2023-02-01T12:13:53.253Z,10.47
2023-02-01T12:14:53.237Z,10.58
2023-02-01T12:15:53.255Z,10.88
2023-02-01T12:16:53.212Z,10.62
2023-02-01T12:17:53.202Z,10.75
2023-02-01T12:18:53.188Z,10.22
2023-02-01T12:19:54.396Z,10.33
2023-02-01T12:20:53.166Z,10.42
2023-02-01T12:21:53.151Z,10.62
2023-02-01T12:22:53.135Z,10.93
2023-02-01T12:23:53.123Z,10.54
2023-02-01T12:24:53.109Z,10.41
2023-02-01T12:25:53.098Z,10.66
2023-02-01T12:26:53.132Z,10.62
2023-02-01T12:27:53.074Z,10.40
2023-02-01T12:28:53.059Z,10.44
2023-02-01T12:29:53.045Z,10.32
2023-02-01T12:30:53.084Z,10.30
2023-02-01T12:31:53.066Z,10.08
2023-02-01T12:32:53.012Z,10.14
2023-02-01T12:33:52.996Z,9.89
2023-02-01T12:34:52.981Z,10.01
2023-02-01T12:35:52.971Z,9.97
2023-02-01T12:36:52.955Z,9.94
2023-02-01T12:37:52.968Z,9.83
2023-02-01T12:38:52.937Z,9.71
2023-02-01T12:39:52.923Z,9.86
2023-02-01T12:40:52.901Z,9.86
2023-02-01T12:41:52.915Z,9.91
2023-02-01T12:42:52.877Z,9.89
2023-02-01T12:43:52.870Z,10.29
2023-02-01T12:44:52.865Z,10.38
2023-02-01T12:45:52.881Z,9.94
2023-02-01T12:46:52.826Z,9.89
2023-02-01T12:47:52.838Z,9.74
2023-02-01T12:48:52.799Z,9.83
2023-02-01T12:49:52.797Z,10.15
2023-02-01T12:50:52.778Z,10.81
2023-02-01T12:51:52.768Z,10.95
2023-02-01T12:52:52.751Z,11.05
2023-02-01T12:53:52.743Z,11.08
2023-02-01T12:54:52.723Z,11.21
2023-02-01T12:55:52.716Z,11.55
2023-02-01T12:56:52.704Z,11.44
2023-02-01T12:57:52.702Z,11.03
2023-02-01T12:58:52.677Z,10.50
2023-02-01T12:59:52.663Z,10.34
2023-02-01T13:00:52.671Z,10.11
2023-02-01T13:01:52.634Z,10.11
2023-02-01T13:02:52.619Z,10.04
2023-02-01T13:03:52.630Z,9.90
2023-02-01T13:04:52.592Z,9.77
2023-02-01T13:05:52.580Z,9.79
2023-02-01T13:06:52.566Z,9.53
2023-02-01T13:07:52.572Z,9.59
2023-02-01T13:08:52.554Z,9.59
2023-02-01T13:09:52.537Z,9.39
2023-02-01T13:10:52.517Z,9.16
2023-02-01T13:11:52.503Z,9.07
2023-02-01T13:12:52.489Z,9.07
2023-02-01T13:13:52.477Z,9.17
2023-02-01T13:14:52.463Z,9.25
2023-02-01T13:15:52.453Z,9.28
2023-02-01T13:16:52.490Z,9.12
2023-02-01T13:17:52.425Z,9.17